Time;durP1;ratioP1;P1;durP2;ratioP2;P2;SDS_P1;SDS_P2;PMS_P1;PMS_P2;Temp;Humidity;BMP_temperature;BMP_pressure;BME280_temperature;BME280_humidity;BME280_pressure;Samples;Min_cycle;Max_cycle;Signal;HPM_P1;HPM_P2
2023/06/06 00:01:03;;;;;;;5.20;3.35;;;;;;;;;;4934698;29;20464;-77
2023/06/06 00:03:29;;;;;;;6.18;3.35;;;;;;;;;;4936264;29;20063;-78
2023/06/06 00:05:55;;;;;;;5.68;3.17;;;;;;;;;;4935203;29;20374;-79
2023/06/06 00:08:23;;;;;;;8.32;4.30;;;;;;;;;;4935422;29;20043;-79
2023/06/06 00:10:49;;;;;;;6.78;3.55;;;;;;;;;;4946128;28;20035;-76
2023/06/06 00:13:18;;;;;;;7.65;3.72;;;;;;;;;;4955607;29;20034;-77
2023/06/06 00:15:44;;;;;;;6.25;3.60;;;;;;;;;;4938341;29;20516;-76
2023/06/06 00:18:11;;;;;;;6.00;3.08;;;;;;;;;;4956243;29;20139;-77
2023/06/06 00:20:38;;;;;;;5.95;3.47;;;;;;;;;;4956248;29;20078;-76
2023/06/06 00:23:04;;;;;;;6.43;3.75;;;;;;;;;;4955413;29;20027;-76
2023/06/06 00:25:30;;;;;;;6.80;3.13;;;;;;;;;;4955022;28;20216;-76
2023/06/06 00:27:56;;;;;;;6.97;3.60;;;;;;;;;;4953292;28;20498;-77
2023/06/06 00:30:21;;;;;;;6.82;3.58;;;;;;;;;;4937311;29;20515;-78
2023/06/06 00:32:47;;;;;;;5.45;3.53;;;;;;;;;;4937183;29;20031;-76
2023/06/06 00:35:12;;;;;;;5.80;3.67;;;;;;;;;;4937301;29;20030;-77
2023/06/06 00:37:38;;;;;;;5.55;3.72;;;;;;;;;;4954244;29;20414;-76
2023/06/06 00:40:06;;;;;;;5.78;3.35;;;;;;;;;;4937284;29;20042;-76
2023/06/06 00:42:31;;;;;;;7.90;3.83;;;;;;;;;;4947152;28;20038;-76
2023/06/06 00:44:57;;;;;;;6.53;3.78;;;;;;;;;;4954028;29;20039;-77
2023/06/06 00:47:23;;;;;;;6.72;3.75;;;;;;;;;;4952824;29;20480;-76
2023/06/06 00:49:49;;;;;;;6.15;3.38;;;;;;;;;;4954199;29;20073;-76
2023/06/06 00:52:16;;;;;;;8.32;3.42;;;;;;;;;;4952768;29;20030;-76
2023/06/06 00:54:42;;;;;;;7.13;3.83;;;;;;;;;;4954221;29;20031;-77
2023/06/06 00:57:08;;;;;;;5.93;3.50;;;;;;;;;;4954036;29;20492;-76
2023/06/06 00:59:34;;;;;;;6.53;3.75;;;;;;;;;;4944208;28;20031;-75
2023/06/06 01:02:04;;;;;;;8.85;4.07;;;;;;;;;;4936987;29;20034;-75
2023/06/06 01:04:29;;;;;;;6.47;3.47;;;;;;;;;;4937509;29;20035;-75
2023/06/06 01:06:57;;;;;;;7.70;3.80;;;;;;;;;;4937494;29;20755;-75
2023/06/06 01:09:22;;;;;;;5.93;3.55;;;;;;;;;;4954373;29;20109;-76
2023/06/06 01:11:57;;;;;;;7.50;4.15;;;;;;;;;;4937252;29;20078;-76
2023/06/06 01:14:26;;;;;;;6.93;3.92;;;;;;;;;;4954681;29;20056;-76
2023/06/06 01:16:57;;;;;;;7.07;3.97;;;;;;;;;;4935603;29;20031;-76
2023/06/06 01:19:29;;;;;;;7.72;3.85;;;;;;;;;;4953453;29;20067;-78
2023/06/06 01:21:56;;;;;;;6.70;3.67;;;;;;;;;;4935879;29;20481;-76
2023/06/06 01:24:22;;;;;;;6.30;3.28;;;;;;;;;;4952488;29;20031;-76
2023/06/06 01:26:50;;;;;;;6.07;3.58;;;;;;;;;;4936436;29;20496;-77
2023/06/06 01:29:17;;;;;;;6.82;3.33;;;;;;;;;;4952099;29;20054;-78
2023/06/06 01:31:47;;;;;;;4.32;2.97;;;;;;;;;;4934700;29;20477;-78
2023/06/06 01:34:27;;;;;;;8.65;3.78;;;;;;;;;;4918464;29;20308;-78
2023/06/06 01:36:57;;;;;;;6.43;3.22;;;;;;;;;;4918810;29;20028;-78
2023/06/06 01:39:24;;;;;;;7.05;3.42;;;;;;;;;;4938204;29;20023;-78
2023/06/06 01:41:53;;;;;;;8.57;3.90;;;;;;;;;;4927573;29;20028;-78
2023/06/06 01:44:20;;;;;;;6.03;3.40;;;;;;;;;;4946890;29;20036;-78
2023/06/06 01:46:45;;;;;;;7.18;3.65;;;;;;;;;;4942908;28;20039;-77
2023/06/06 01:49:11;;;;;;;5.25;3.33;;;;;;;;;;4962584;29;20411;-78
2023/06/06 01:51:37;;;;;;;7.03;3.75;;;;;;;;;;4956936;29;20556;-78
2023/06/06 01:54:03;;;;;;;6.47;3.30;;;;;;;;;;4955219;28;20094;-76
2023/06/06 01:56:33;;;;;;;8.60;3.92;;;;;;;;;;4954473;29;20543;-79
2023/06/06 01:58:59;;;;;;;6.90;3.50;;;;;;;;;;4955140;29;20053;-78
2023/06/06 02:01:26;;;;;;;5.38;3.30;;;;;;;;;;4939053;29;20035;-76
2023/06/06 02:03:52;;;;;;;7.80;3.65;;;;;;;;;;4954716;29;20548;-77
2023/06/06 02:06:19;;;;;;;5.22;3.30;;;;;;;;;;4955784;29;20035;-78
2023/06/06 02:08:47;;;;;;;6.60;3.40;;;;;;;;;;4955721;29;20381;-79
2023/06/06 02:11:13;;;;;;;5.55;3.40;;;;;;;;;;4955644;29;20034;-77
2023/06/06 02:13:38;;;;;;;6.07;3.53;;;;;;;;;;4923124;29;20035;-78
2023/06/06 02:16:04;;;;;;;8.52;3.40;;;;;;;;;;4901446;28;1103786;-77
2023/06/06 02:18:30;;;;;;;7.47;3.65;;;;;;;;;;4923541;28;20433;-77
2023/06/06 02:20:58;;;;;;;5.63;3.17;;;;;;;;;;4932362;29;20540;-77
2023/06/06 02:23:24;;;;;;;7.30;3.47;;;;;;;;;;4920910;29;20062;-78
2023/06/06 02:25:50;;;;;;;7.45;3.42;;;;;;;;;;4920505;29;20508;-76
2023/06/06 02:28:16;;;;;;;6.40;3.15;;;;;;;;;;4937593;29;20485;-79
2023/06/06 02:30:42;;;;;;;5.65;3.20;;;;;;;;;;4936281;29;20035;-79
2023/06/06 02:33:07;;;;;;;4.68;2.92;;;;;;;;;;4936159;29;20474;-77
2023/06/06 02:35:34;;;;;;;9.10;3.72;;;;;;;;;;4920939;29;20027;-77
2023/06/06 02:38:00;;;;;;;5.93;3.47;;;;;;;;;;4939698;29;20038;-76
2023/06/06 02:40:25;;;;;;;6.75;3.92;;;;;;;;;;4939389;29;20027;-76
2023/06/06 02:42:52;;;;;;;10.18;5.50;;;;;;;;;;4939338;29;20043;-77
2023/06/06 02:45:19;;;;;;;6.63;3.63;;;;;;;;;;4923676;29;20042;-78
2023/06/06 02:47:46;;;;;;;8.30;3.83;;;;;;;;;;4923367;29;20035;-79
2023/06/06 02:50:11;;;;;;;7.80;4.60;;;;;;;;;;4939168;29;20035;-78
2023/06/06 02:52:40;;;;;;;11.25;4.53;;;;;;;;;;4938724;29;20027;-78
2023/06/06 02:55:07;;;;;;;6.22;3.17;;;;;;;;;;4956133;29;20031;-77
2023/06/06 02:57:32;;;;;;;6.10;3.63;;;;;;;;;;4954923;29;20034;-77
2023/06/06 02:59:59;;;;;;;9.23;3.42;;;;;;;;;;4939059;29;20408;-78
2023/06/06 03:02:24;;;;;;;8.10;3.58;;;;;;;;;;4938914;29;20480;-76
2023/06/06 03:04:50;;;;;;;6.25;3.47;;;;;;;;;;4938978;29;20029;-77
2023/06/06 03:07:16;;;;;;;5.47;3.60;;;;;;;;;;4936096;29;20038;-77
2023/06/06 03:09:42;;;;;;;5.93;3.50;;;;;;;;;;4923203;29;20270;-78
2023/06/06 03:12:12;;;;;;;7.00;3.85;;;;;;;;;;4938595;29;20588;-77
2023/06/06 03:14:38;;;;;;;8.68;4.13;;;;;;;;;;4938778;29;20031;-78
2023/06/06 03:17:04;;;;;;;6.70;3.60;;;;;;;;;;4922607;29;20396;-78
2023/06/06 03:19:32;;;;;;;5.75;3.45;;;;;;;;;;4938615;29;20528;-78
2023/06/06 03:21:59;;;;;;;6.47;3.80;;;;;;;;;;4938389;29;20031;-77
2023/06/06 03:24:28;;;;;;;10.13;4.03;;;;;;;;;;4917610;29;20027;-77
2023/06/06 03:26:56;;;;;;;8.55;4.97;;;;;;;;;;4951237;28;20111;-77
2023/06/06 03:29:21;;;;;;;8.15;4.60;;;;;;;;;;4919264;29;20047;-77
2023/06/06 03:31:49;;;;;;;8.40;3.38;;;;;;;;;;4919242;29;20023;-78
2023/06/06 03:34:15;;;;;;;9.75;4.05;;;;;;;;;;4935247;29;20031;-78
2023/06/06 03:36:43;;;;;;;8.43;4.70;;;;;;;;;;4951256;29;20031;-77
2023/06/06 03:39:10;;;;;;;9.07;4.30;;;;;;;;;;4951076;28;20401;-77
2023/06/06 03:41:36;;;;;;;8.18;4.43;;;;;;;;;;4920743;28;20035;-78
2023/06/06 03:44:02;;;;;;;8.13;4.38;;;;;;;;;;4938061;29;20035;-77
2023/06/06 03:46:28;;;;;;;9.88;4.57;;;;;;;;;;4938484;29;20118;-79
2023/06/06 03:48:54;;;;;;;8.88;4.50;;;;;;;;;;4922550;29;20043;-78
2023/06/06 03:51:19;;;;;;;8.70;4.30;;;;;;;;;;4938703;29;20519;-78
2023/06/06 03:53:45;;;;;;;8.25;4.13;;;;;;;;;;4955368;29;20024;-77
2023/06/06 03:56:12;;;;;;;9.55;4.10;;;;;;;;;;4938417;29;20034;-78
2023/06/06 03:58:37;;;;;;;14.45;8.05;;;;;;;;;;4938699;29;20031;-79
2023/06/06 04:01:03;;;;;;;8.57;4.70;;;;;;;;;;4921219;29;20523;-77
2023/06/06 04:03:36;;;;;;;9.43;4.35;;;;;;;;;;4922442;29;20484;-77
2023/06/06 04:06:02;;;;;;;10.05;4.22;;;;;;;;;;4938192;29;20167;-78
2023/06/06 04:08:28;;;;;;;8.20;4.40;;;;;;;;;;4937930;29;20097;-79
2023/06/06 04:10:53;;;;;;;9.32;4.60;;;;;;;;;;4937637;29;20470;-78
2023/06/06 04:13:19;;;;;;;7.82;3.72;;;;;;;;;;4938126;29;20555;-78
2023/06/06 04:15:45;;;;;;;6.97;4.00;;;;;;;;;;4955609;29;20492;-77
2023/06/06 04:18:12;;;;;;;7.30;4.00;;;;;;;;;;4937182;29;20547;-81
2023/06/06 04:20:37;;;;;;;8.15;3.95;;;;;;;;;;4938273;29;20038;-79
2023/06/06 04:23:04;;;;;;;9.32;4.20;;;;;;;;;;4943476;29;20034;-80
2023/06/06 04:25:29;;;;;;;6.00;3.90;;;;;;;;;;4947316;29;20134;-79
2023/06/06 04:27:55;;;;;;;9.30;4.70;;;;;;;;;;4963701;29;20031;-80
2023/06/06 04:30:23;;;;;;;8.32;4.57;;;;;;;;;;4927151;29;20077;-80
2023/06/06 04:32:51;;;;;;;9.98;5.93;;;;;;;;;;4941294;29;20420;-79
2023/06/06 04:35:16;;;;;;;10.50;4.82;;;;;;;;;;4936322;29;20036;-78
2023/06/06 04:37:43;;;;;;;6.97;3.95;;;;;;;;;;4921355;29;20043;-79
2023/06/06 04:40:10;;;;;;;7.88;4.28;;;;;;;;;;4921204;29;20050;-78
2023/06/06 04:42:36;;;;;;;10.45;4.05;;;;;;;;;;4941612;29;20098;-78
2023/06/06 04:45:03;;;;;;;10.27;4.65;;;;;;;;;;4923635;29;20437;-82
2023/06/06 04:47:32;;;;;;;6.70;3.88;;;;;;;;;;4936366;29;20500;-79
2023/06/06 04:49:58;;;;;;;11.18;3.92;;;;;;;;;;4921745;29;20129;-80
2023/06/06 04:52:24;;;;;;;8.45;3.88;;;;;;;;;;4941351;29;20077;-78
2023/06/06 04:54:51;;;;;;;10.30;4.35;;;;;;;;;;4963516;29;20031;-78
2023/06/06 04:57:17;;;;;;;10.63;4.68;;;;;;;;;;4959062;29;20050;-77
2023/06/06 04:59:52;;;;;;;7.93;3.67;;;;;;;;;;4955171;28;20492;-78
2023/06/06 05:02:20;;;;;;;9.35;4.35;;;;;;;;;;4954678;29;20031;-77
2023/06/06 05:04:47;;;;;;;6.75;3.85;;;;;;;;;;4954745;29;20102;-78
2023/06/06 05:07:13;;;;;;;9.32;4.05;;;;;;;;;;4952347;28;20539;-78
2023/06/06 05:09:38;;;;;;;11.77;4.30;;;;;;;;;;4907084;29;20032;-80
2023/06/06 05:12:05;;;;;;;8.27;3.83;;;;;;;;;;4918512;29;20027;-78
2023/06/06 05:14:30;;;;;;;7.15;4.05;;;;;;;;;;4918390;29;20079;-79
2023/06/06 05:16:57;;;;;;;12.18;4.78;;;;;;;;;;4949870;23;20050;-82
2023/06/06 05:19:25;;;;;;;9.88;4.07;;;;;;;;;;4958159;28;20055;-83
2023/06/06 05:21:51;;;;;;;8.45;3.72;;;;;;;;;;4957070;28;20397;-84
2023/06/06 05:24:16;;;;;;;9.60;4.10;;;;;;;;;;4968075;28;20478;-81
2023/06/06 05:26:42;;;;;;;8.32;4.13;;;;;;;;;;4937167;29;20032;-83
2023/06/06 05:29:08;;;;;;;7.30;4.05;;;;;;;;;;4952891;28;20508;-84
2023/06/06 05:31:34;;;;;;;9.23;4.35;;;;;;;;;;4973215;28;20170;-84
2023/06/06 05:34:00;;;;;;;10.57;3.65;;;;;;;;;;4957996;29;20114;-83
2023/06/06 05:36:26;;;;;;;6.85;4.28;;;;;;;;;;4941236;29;20035;-82
2023/06/06 05:38:51;;;;;;;8.10;3.60;;;;;;;;;;4957435;28;20054;-83
2023/06/06 05:41:20;;;;;;;15.98;8.70;;;;;;;;;;4956391;28;20106;-82
2023/06/06 05:43:46;;;;;;;;;;;;;;;;;;4942076;29;20049;-82
2023/06/06 05:46:12;;;;;;;9.20;4.95;;;;;;;;;;4957148;29;19910;-83
2023/06/06 05:48:38;;;;;;;9.68;4.28;;;;;;;;;;4957900;29;20086;-83
2023/06/06 05:51:03;;;;;;;7.90;4.60;;;;;;;;;;4962422;29;20020;-83
2023/06/06 05:53:29;;;;;;;9.32;4.18;;;;;;;;;;4957899;29;20097;-82
2023/06/06 05:55:55;;;;;;;9.10;5.13;;;;;;;;;;4957873;29;20042;-82
2023/06/06 05:58:20;;;;;;;8.20;3.55;;;;;;;;;;4939217;29;20039;-84
2023/06/06 06:00:46;;;;;;;6.53;3.50;;;;;;;;;;4940316;29;20061;-82
2023/06/06 06:03:15;;;;;;;5.80;3.30;;;;;;;;;;4925719;29;20031;-82
2023/06/06 06:05:41;;;;;;;8.88;4.07;;;;;;;;;;4940774;29;20039;-82
2023/06/06 06:08:07;;;;;;;8.57;4.32;;;;;;;;;;4940215;29;20062;-82
2023/06/06 06:10:33;;;;;;;8.13;4.00;;;;;;;;;;4956432;29;20397;-83
2023/06/06 06:12:59;;;;;;;8.40;4.43;;;;;;;;;;4957324;29;20034;-81
2023/06/06 06:15:25;;;;;;;6.53;3.80;;;;;;;;;;4939082;29;20385;-81
2023/06/06 06:17:50;;;;;;;10.23;5.05;;;;;;;;;;4957448;29;20039;-84
2023/06/06 06:20:17;;;;;;;14.82;7.45;;;;;;;;;;4940444;29;20042;-82
2023/06/06 06:22:43;;;;;;;7.75;3.92;;;;;;;;;;4940645;29;20043;-82
2023/06/06 06:25:12;;;;;;;7.68;3.70;;;;;;;;;;4940996;29;20563;-82
2023/06/06 06:27:38;;;;;;;6.13;3.83;;;;;;;;;;4957389;28;20035;-81
2023/06/06 06:30:04;;;;;;;8.38;4.15;;;;;;;;;;4957291;29;20392;-82
2023/06/06 06:32:34;;;;;;;9.98;3.88;;;;;;;;;;4939509;29;20034;-82
2023/06/06 06:35:01;;;;;;;7.63;4.00;;;;;;;;;;4957081;29;20066;-82
2023/06/06 06:37:29;;;;;;;6.90;3.72;;;;;;;;;;4957202;29;20554;-83
2023/06/06 06:39:55;;;;;;;;;;;;;;;;;;4956800;29;20035;-83
2023/06/06 06:42:20;;;;;;;11.25;4.07;;;;;;;;;;4957862;28;20487;-83
2023/06/06 06:45:00;;;;;;;7.03;3.80;;;;;;;;;;4940099;29;20031;-82
2023/06/06 06:47:26;;;;;;;6.72;3.63;;;;;;;;;;4939092;29;20027;-83
2023/06/06 06:49:52;;;;;;;8.95;3.67;;;;;;;;;;4956439;29;20023;-83
2023/06/06 06:52:18;;;;;;;10.85;5.32;;;;;;;;;;4924078;29;20050;-84
2023/06/06 06:54:57;;;;;;;7.53;3.83;;;;;;;;;;4955765;29;20484;-81
2023/06/06 06:57:23;;;;;;;7.60;3.30;;;;;;;;;;4925003;29;20043;-81
2023/06/06 06:59:49;;;;;;;6.65;3.33;;;;;;;;;;4927656;29;20035;-82
2023/06/06 07:02:15;;;;;;;5.30;3.17;;;;;;;;;;4960347;29;20111;-80
2023/06/06 07:04:41;;;;;;;7.45;4.22;;;;;;;;;;4941731;29;20066;-82
2023/06/06 07:07:06;;;;;;;6.22;3.55;;;;;;;;;;4957501;29;20078;-82
2023/06/06 07:09:32;;;;;;;6.43;3.10;;;;;;;;;;4961040;29;20031;-82
2023/06/06 07:11:57;;;;;;;8.02;3.92;;;;;;;;;;4955502;29;20031;-81
2023/06/06 07:14:25;;;;;;;7.57;3.33;;;;;;;;;;4924302;29;20031;-82
2023/06/06 07:16:51;;;;;;;8.63;4.50;;;;;;;;;;4939439;29;20035;-81
2023/06/06 07:19:16;;;;;;;9.95;5.05;;;;;;;;;;4939387;29;20035;-83
2023/06/06 07:21:42;;;;;;;7.93;5.05;;;;;;;;;;4938395;29;20031;-83
2023/06/06 07:24:08;;;;;;;8.77;4.18;;;;;;;;;;4939412;29;20121;-82
2023/06/06 07:26:33;;;;;;;8.65;5.28;;;;;;;;;;4956636;29;20119;-81
2023/06/06 07:28:59;;;;;;;9.05;4.80;;;;;;;;;;4939372;29;20047;-81
2023/06/06 07:31:25;;;;;;;8.63;3.70;;;;;;;;;;4956056;29;20027;-80
2023/06/06 07:33:50;;;;;;;8.25;3.40;;;;;;;;;;4955811;29;20027;-79
2023/06/06 07:36:16;;;;;;;7.75;3.80;;;;;;;;;;4957087;29;20019;-82
2023/06/06 07:38:41;;;;;;;8.52;3.63;;;;;;;;;;4956133;29;20035;-81
2023/06/06 07:41:07;;;;;;;6.53;3.63;;;;;;;;;;4942559;29;20085;-83
2023/06/06 07:43:32;;;;;;;8.68;4.00;;;;;;;;;;4939924;29;20036;-82
2023/06/06 07:45:58;;;;;;;8.10;4.13;;;;;;;;;;4956768;29;20035;-83
2023/06/06 07:48:24;;;;;;;6.80;4.07;;;;;;;;;;4939656;29;20047;-83
2023/06/06 07:50:50;;;;;;;7.70;3.97;;;;;;;;;;4955777;29;20027;-82
2023/06/06 07:53:16;;;;;;;7.63;3.70;;;;;;;;;;4938930;29;20134;-81
2023/06/06 07:55:43;;;;;;;7.10;3.72;;;;;;;;;;4939680;29;20481;-83
2023/06/06 07:58:11;;;;;;;7.72;4.68;;;;;;;;;;4956918;29;20035;-82
2023/06/06 08:00:38;;;;;;;9.40;4.82;;;;;;;;;;4957480;29;20031;-81
2023/06/06 08:03:04;;;;;;;10.90;4.20;;;;;;;;;;4956700;29;20035;-82
2023/06/06 08:05:33;;;;;;;13.23;5.88;;;;;;;;;;4940175;29;20556;-82
2023/06/06 08:07:59;;;;;;;;;;;;;;;;;;4944241;29;20035;-83
2023/06/06 08:10:25;;;;;;;8.00;3.92;;;;;;;;;;4946128;29;19917;-85
2023/06/06 08:12:50;;;;;;;6.47;3.63;;;;;;;;;;4936333;28;20051;-87
2023/06/06 08:15:15;;;;;;;7.78;3.80;;;;;;;;;;4955934;29;20555;-85
2023/06/06 08:17:41;;;;;;;7.25;3.75;;;;;;;;;;4972354;28;20022;-87
2023/06/06 08:20:08;;;;;;;7.18;3.97;;;;;;;;;;4953737;28;20066;-88
2023/06/06 08:22:37;;;;;;;7.60;3.72;;;;;;;;;;4957198;28;20038;-86
2023/06/06 08:25:07;;;;;;;11.63;3.88;;;;;;;;;;4966569;28;20073;-85
2023/06/06 08:27:34;;;;;;;8.10;4.03;;;;;;;;;;4975349;28;20476;-84
2023/06/06 08:30:00;;;;;;;5.70;3.55;;;;;;;;;;4961463;28;20041;-84
2023/06/06 08:32:26;;;;;;;6.25;3.75;;;;;;;;;;4965612;28;20090;-86
2023/06/06 08:34:52;;;;;;;6.03;3.90;;;;;;;;;;4969367;28;20035;-85
2023/06/06 08:37:18;;;;;;;6.45;3.47;;;;;;;;;;4958289;28;20057;-85
2023/06/06 08:39:44;;;;;;;6.40;4.00;;;;;;;;;;4979563;28;20050;-86
2023/06/06 08:42:11;;;;;;;8.90;4.18;;;;;;;;;;4979837;28;20057;-84
2023/06/06 08:44:37;;;;;;;8.38;3.85;;;;;;;;;;4970660;28;20034;-84
2023/06/06 08:47:03;;;;;;;8.43;4.05;;;;;;;;;;4989065;28;20087;-85
2023/06/06 08:49:30;;;;;;;6.30;3.60;;;;;;;;;;4975999;29;20038;-85
2023/06/06 08:51:56;;;;;;;8.55;4.00;;;;;;;;;;4970607;28;20031;-87
2023/06/06 08:54:22;;;;;;;6.18;3.65;;;;;;;;;;4992099;28;20094;-86
2023/06/06 08:56:51;;;;;;;7.35;3.85;;;;;;;;;;4976786;28;20039;-87
2023/06/06 08:59:20;;;;;;;6.18;3.75;;;;;;;;;;4979916;28;20074;-85
2023/06/06 09:01:47;;;;;;;9.70;4.00;;;;;;;;;;4969963;28;20042;-84
2023/06/06 09:04:15;;;;;;;10.40;4.47;;;;;;;;;;4945780;29;20396;-83
2023/06/06 09:06:44;;;;;;;7.45;4.18;;;;;;;;;;4969978;28;20114;-82
2023/06/06 09:09:09;;;;;;;5.80;3.80;;;;;;;;;;4937799;29;20046;-83
2023/06/06 09:11:35;;;;;;;10.57;6.05;;;;;;;;;;4963922;28;20058;-83
2023/06/06 09:14:01;;;;;;;8.73;4.30;;;;;;;;;;4930063;29;20046;-84
2023/06/06 09:16:27;;;;;;;7.53;3.58;;;;;;;;;;4969304;28;20451;-83
2023/06/06 09:18:55;;;;;;;6.78;4.45;;;;;;;;;;4959340;28;20104;-82
2023/06/06 09:21:21;;;;;;;6.95;3.85;;;;;;;;;;4940616;29;20031;-83
2023/06/06 09:23:46;;;;;;;6.50;3.70;;;;;;;;;;4929152;29;20484;-83
2023/06/06 09:26:19;;;;;;;6.63;3.85;;;;;;;;;;4952332;28;20034;-84
2023/06/06 09:28:44;;;;;;;10.18;3.97;;;;;;;;;;4977653;28;20027;-82
2023/06/06 09:31:30;;;;;;;10.15;4.38;;;;;;;;;;4960271;29;20418;-85
2023/06/06 09:33:58;;;;;;;6.15;4.00;;;;;;;;;;4963493;29;20044;-82
2023/06/06 09:36:25;;;;;;;8.40;4.35;;;;;;;;;;4963523;29;20031;-83
2023/06/06 09:38:51;;;;;;;11.13;4.70;;;;;;;;;;4979979;28;20063;-83
2023/06/06 09:41:17;;;;;;;7.90;3.85;;;;;;;;;;4974189;28;20031;-82
2023/06/06 09:43:43;;;;;;;9.35;5.68;;;;;;;;;;4982910;28;20050;-83
2023/06/06 09:46:08;;;;;;;8.80;4.28;;;;;;;;;;4977249;28;20035;-83
2023/06/06 09:48:34;;;;;;;6.80;4.10;;;;;;;;;;4961671;28;20046;-84
2023/06/06 09:51:00;;;;;;;6.78;3.97;;;;;;;;;;4965692;28;20062;-83
2023/06/06 09:53:27;;;;;;;18.58;5.50;;;;;;;;;;4974541;28;20157;-83
2023/06/06 09:55:54;;;;;;;7.18;4.22;;;;;;;;;;4959476;28;20038;-84
2023/06/06 09:58:20;;;;;;;8.57;4.35;;;;;;;;;;4958665;28;20046;-84
2023/06/06 10:00:47;;;;;;;8.48;4.40;;;;;;;;;;4944022;29;20055;-83
2023/06/06 10:03:20;;;;;;;12.73;4.28;;;;;;;;;;4949570;28;20042;-82
2023/06/06 10:05:50;;;;;;;7.82;4.28;;;;;;;;;;4958217;29;20039;-82
2023/06/06 10:08:19;;;;;;;8.18;4.10;;;;;;;;;;4978039;28;20659;-83
2023/06/06 10:10:49;;;;;;;8.15;4.40;;;;;;;;;;4952562;29;20034;-81
2023/06/06 10:13:17;;;;;;;94.22;63.47;;;;;;;;;;4954113;29;20047;-82
2023/06/06 10:15:43;;;;;;;;;;;;;;;;;;4963119;28;20042;-83
2023/06/06 10:18:09;;;;;;;20.17;11.65;;;;;;;;;;4969267;28;19993;-83
2023/06/06 10:20:36;;;;;;;11.23;6.72;;;;;;;;;;4947645;29;20158;-84
2023/06/06 10:23:02;;;;;;;9.65;5.30;;;;;;;;;;4944986;28;20035;-83
2023/06/06 10:25:28;;;;;;;11.30;6.32;;;;;;;;;;4948927;28;20147;-84
2023/06/06 10:28:12;;;;;;;13.52;6.95;;;;;;;;;;4960333;28;20601;-86
2023/06/06 10:30:41;;;;;;;11.48;7.30;;;;;;;;;;4940998;28;20321;-85
2023/06/06 10:33:13;;;;;;;9.18;4.95;;;;;;;;;;4973326;28;20579;-86
2023/06/06 10:35:39;;;;;;;9.70;4.88;;;;;;;;;;4966798;28;20035;-84
2023/06/06 10:38:09;;;;;;;7.20;4.68;;;;;;;;;;4969730;28;20487;-84
2023/06/06 10:40:41;;;;;;;8.02;4.65;;;;;;;;;;4943434;28;20042;-84
2023/06/06 10:43:07;;;;;;;6.18;3.90;;;;;;;;;;4970744;28;20023;-85
2023/06/06 10:45:43;;;;;;;9.75;4.20;;;;;;;;;;4939889;29;20066;-83
2023/06/06 10:48:08;;;;;;;6.93;3.72;;;;;;;;;;4969927;28;20045;-84
2023/06/06 10:50:34;;;;;;;17.67;5.72;;;;;;;;;;4960125;28;20028;-84
2023/06/06 10:53:06;;;;;;;5.90;3.70;;;;;;;;;;4954430;29;20484;-83
2023/06/06 10:55:32;;;;;;;6.15;3.67;;;;;;;;;;4963113;28;20023;-84
2023/06/06 10:58:05;;;;;;;6.35;3.58;;;;;;;;;;4975391;28;20058;-84
2023/06/06 11:00:32;;;;;;;7.22;3.80;;;;;;;;;;4941353;28;20036;-85
2023/06/06 11:02:58;;;;;;;5.70;3.38;;;;;;;;;;4923388;28;20050;-83
2023/06/06 11:05:24;;;;;;;6.60;3.80;;;;;;;;;;4966951;28;20102;-84
2023/06/06 11:07:50;;;;;;;7.20;3.95;;;;;;;;;;4942299;29;20110;-85
2023/06/06 11:10:21;;;;;;;8.05;4.22;;;;;;;;;;4947353;28;20026;-83
2023/06/06 11:12:50;;;;;;;8.18;4.32;;;;;;;;;;4955646;28;20050;-81
2023/06/06 11:15:45;;;;;;;83.10;51.80;;;;;;;;;;4962022;28;20050;-85
2023/06/06 11:18:10;;;;;;;31.63;17.38;;;;;;;;;;4998877;23;20055;-84
2023/06/06 11:20:40;;;;;;;13.23;7.80;;;;;;;;;;4965419;28;20077;-83
2023/06/06 11:23:06;;;;;;;15.80;9.23;;;;;;;;;;4966251;28;20041;-82
2023/06/06 11:25:35;;;;;;;12.20;6.35;;;;;;;;;;4952662;28;20035;-82
2023/06/06 11:28:01;;;;;;;15.10;6.85;;;;;;;;;;4970078;28;20041;-82
2023/06/06 11:30:31;;;;;;;10.38;5.43;;;;;;;;;;4949853;28;20031;-83
2023/06/06 11:32:56;;;;;;;8.02;4.10;;;;;;;;;;4917535;28;20175;-81
2023/06/06 11:35:23;;;;;;;9.23;4.88;;;;;;;;;;4960395;28;20155;-81
2023/06/06 11:37:49;;;;;;;11.27;4.60;;;;;;;;;;4992796;28;20035;-82
2023/06/06 11:40:15;;;;;;;9.88;5.18;;;;;;;;;;4953815;28;20046;-83
2023/06/06 11:42:44;;;;;;;9.70;5.05;;;;;;;;;;4955772;28;20045;-81
2023/06/06 11:45:14;;;;;;;8.23;5.50;;;;;;;;;;4969794;28;20054;-80
2023/06/06 11:47:43;;;;;;;7.30;4.53;;;;;;;;;;4967894;28;20026;-81
2023/06/06 11:50:11;;;;;;;9.75;5.68;;;;;;;;;;4997500;28;20027;-81
2023/06/06 11:52:50;;;;;;;11.73;5.07;;;;;;;;;;4978458;28;20058;-80
2023/06/06 11:55:17;;;;;;;11.25;4.78;;;;;;;;;;4956878;28;20035;-80
2023/06/06 11:57:46;;;;;;;8.90;4.88;;;;;;;;;;4944130;28;20507;-81
2023/06/06 12:00:15;;;;;;;10.15;5.60;;;;;;;;;;4962812;28;20058;-81
2023/06/06 12:02:41;;;;;;;8.82;5.05;;;;;;;;;;4942526;28;20039;-80
2023/06/06 12:05:20;;;;;;;10.02;4.40;;;;;;;;;;4982842;28;20029;-80
2023/06/06 12:07:57;;;;;;;8.10;4.85;;;;;;;;;;4967369;28;20034;-81
2023/06/06 12:10:26;;;;;;;10.98;5.00;;;;;;;;;;4939896;28;20537;-81
2023/06/06 12:12:52;;;;;;;7.07;4.57;;;;;;;;;;5000279;28;20208;-81
2023/06/06 12:15:18;;;;;;;9.85;4.57;;;;;;;;;;4953121;28;20042;-81
2023/06/06 12:17:44;;;;;;;9.13;4.40;;;;;;;;;;4956945;28;20138;-81
2023/06/06 12:20:10;;;;;;;7.03;4.13;;;;;;;;;;4986774;28;20030;-81
2023/06/06 12:22:36;;;;;;;8.68;4.50;;;;;;;;;;4977415;28;20041;-80
2023/06/06 12:25:05;;;;;;;6.80;4.82;;;;;;;;;;4974197;28;20061;-80
2023/06/06 12:27:33;;;;;;;7.88;4.32;;;;;;;;;;4976256;28;20030;-80
2023/06/06 12:30:00;;;;;;;8.23;4.07;;;;;;;;;;4974373;28;20058;-78
2023/06/06 12:32:26;;;;;;;11.45;4.65;;;;;;;;;;4965064;28;20030;-82
2023/06/06 12:35:02;;;;;;;8.27;4.40;;;;;;;;;;4964229;28;20069;-81
2023/06/06 12:37:36;;;;;;;215.05;153.30;;;;;;;;;;4954581;28;20082;-82
2023/06/06 12:40:08;;;;;;;32.92;23.98;;;;;;;;;;4943190;28;20073;-82
2023/06/06 12:42:34;;;;;;;14.80;7.82;;;;;;;;;;4952352;28;20039;-82
2023/06/06 12:45:00;;;;;;;10.57;5.68;;;;;;;;;;4977534;28;20031;-82
2023/06/06 12:47:26;;;;;;;10.05;5.72;;;;;;;;;;4994497;28;20038;-83
2023/06/06 12:50:01;;;;;;;9.57;5.00;;;;;;;;;;4977708;28;20037;-83
2023/06/06 12:52:27;;;;;;;8.45;5.25;;;;;;;;;;4979152;28;20032;-82
2023/06/06 12:54:53;;;;;;;9.38;4.57;;;;;;;;;;4977238;28;20097;-82
2023/06/06 12:57:26;;;;;;;8.05;4.53;;;;;;;;;;4940583;28;20027;-82
2023/06/06 12:59:52;;;;;;;10.88;4.82;;;;;;;;;;4955371;28;20043;-82
2023/06/06 13:02:18;;;;;;;9.38;4.72;;;;;;;;;;4959328;28;20038;-81
2023/06/06 13:04:59;;;;;;;7.88;4.72;;;;;;;;;;4979794;28;20106;-82
2023/06/06 13:07:29;;;;;;;9.43;4.88;;;;;;;;;;4957437;28;20066;-82
2023/06/06 13:09:59;;;;;;;10.77;4.45;;;;;;;;;;4958373;28;20042;-82
2023/06/06 13:12:34;;;;;;;6.35;4.20;;;;;;;;;;4975173;28;20038;-82
2023/06/06 13:15:00;;;;;;;9.10;4.18;;;;;;;;;;4925530;29;20059;-83
2023/06/06 13:17:34;;;;;;;11.32;4.63;;;;;;;;;;4952336;28;20034;-83
2023/06/06 13:20:06;;;;;;;12.80;4.28;;;;;;;;;;4994871;28;20018;-83
2023/06/06 13:22:35;;;;;;;9.18;5.00;;;;;;;;;;4949603;28;20042;-80
2023/06/06 13:25:03;;;;;;;6.40;4.35;;;;;;;;;;4995017;28;20066;-80
2023/06/06 13:27:29;;;;;;;8.27;4.10;;;;;;;;;;4995144;28;20034;-79
2023/06/06 13:29:56;;;;;;;9.85;4.35;;;;;;;;;;4958529;28;20106;-82
2023/06/06 13:32:22;;;;;;;6.90;4.90;;;;;;;;;;4944031;28;20066;-81
2023/06/06 13:34:48;;;;;;;7.47;4.90;;;;;;;;;;4971277;28;20272;-82
2023/06/06 13:37:13;;;;;;;7.40;4.75;;;;;;;;;;4963512;28;20022;-82
2023/06/06 13:39:40;;;;;;;6.82;4.20;;;;;;;;;;4968666;28;20044;-83
2023/06/06 13:42:09;;;;;;;9.25;4.53;;;;;;;;;;4973476;28;20129;-83
2023/06/06 13:44:41;;;;;;;8.38;4.72;;;;;;;;;;4974394;28;20033;-83
2023/06/06 13:47:07;;;;;;;8.85;4.45;;;;;;;;;;4942723;28;20484;-82
2023/06/06 13:49:38;;;;;;;10.15;4.80;;;;;;;;;;4951225;28;20069;-83
2023/06/06 13:52:08;;;;;;;9.68;4.80;;;;;;;;;;4951342;28;20027;-83
2023/06/06 13:54:41;;;;;;;7.93;4.30;;;;;;;;;;4960943;28;20129;-82
2023/06/06 13:57:12;;;;;;;8.90;4.72;;;;;;;;;;4978976;28;20192;-83
2023/06/06 13:59:46;;;;;;;8.23;4.30;;;;;;;;;;4955608;28;20043;-82
2023/06/06 14:02:15;;;;;;;7.13;4.38;;;;;;;;;;4961768;28;20031;-84
2023/06/06 14:04:42;;;;;;;9.77;4.80;;;;;;;;;;4946170;28;20039;-83
2023/06/06 14:07:09;;;;;;;7.68;4.50;;;;;;;;;;4951452;28;20034;-83
2023/06/06 14:09:35;;;;;;;6.57;4.00;;;;;;;;;;4955972;28;20050;-82
2023/06/06 14:12:01;;;;;;;9.35;3.92;;;;;;;;;;4973137;28;20027;-83
2023/06/06 14:14:32;;;;;;;8.48;3.78;;;;;;;;;;4964545;28;20030;-83
2023/06/06 14:17:01;;;;;;;8.32;4.68;;;;;;;;;;4926774;29;20105;-83
2023/06/06 14:19:37;;;;;;;6.15;4.07;;;;;;;;;;4944498;29;20094;-84
2023/06/06 14:22:20;;;;;;;6.65;4.13;;;;;;;;;;4932691;29;20086;-82
2023/06/06 14:24:50;;;;;;;6.82;4.30;;;;;;;;;;4945307;28;20034;-84
2023/06/06 14:27:16;;;;;;;7.05;3.67;;;;;;;;;;4953444;28;20037;-83
2023/06/06 14:29:42;;;;;;;8.10;4.78;;;;;;;;;;4948574;28;20027;-81
2023/06/06 14:32:10;;;;;;;8.02;4.47;;;;;;;;;;4942226;29;20151;-82
2023/06/06 14:34:42;;;;;;;9.57;4.00;;;;;;;;;;4912190;28;20567;-82
2023/06/06 14:37:08;;;;;;;7.03;4.20;;;;;;;;;;4942093;29;20571;-83
2023/06/06 14:39:34;;;;;;;6.82;4.10;;;;;;;;;;4926436;29;20063;-82
2023/06/06 14:42:00;;;;;;;10.40;4.85;;;;;;;;;;4940975;28;20031;-83